Time;durP1;ratioP1;P1;durP2;ratioP2;P2;SDS_P1;SDS_P2;PMS_P1;PMS_P2;Temp;Humidity;BMP_temperature;BMP_pressure;BME280_temperature;BME280_humidity;BME280_pressure;Samples;Min_cycle;Max_cycle;Signal;HPM_P1;HPM_P2
2022/01/07 00:01:34;;;;;;;;;16.33;14.00;;;;;5.15;72.55;101613.03;5025716;28;45921;-66
2022/01/07 00:04:00;;;;;;;;;14.00;10.00;;;;;5.19;73.49;101601.97;5031777;28;45452;-67
2022/01/07 00:06:25;;;;;;;;;18.00;15.00;;;;;5.18;73.30;101608.34;5031700;28;47294;-66
2022/01/07 00:08:51;;;;;;;;;16.67;11.67;;;;;5.06;74.17;101595.59;5032472;28;45232;-67
2022/01/07 00:11:16;;;;;;;;;10.00;9.67;;;;;5.03;76.03;101588.59;5037447;28;46032;-66
2022/01/07 00:13:42;;;;;;;;;18.33;13.67;;;;;5.04;78.16;101568.75;5022495;28;45303;-66
2022/01/07 00:16:07;;;;;;;;;12.33;8.33;;;;;4.98;75.89;101573.63;5032635;28;45639;-65
2022/01/07 00:18:33;;;;;;;;;13.67;13.67;;;;;5.00;75.57;101574.44;5024113;28;45770;-66
2022/01/07 00:20:59;;;;;;;;;11.33;9.33;;;;;5.01;76.47;101568.94;5031618;28;45327;-66
2022/01/07 00:23:25;;;;;;;;;8.67;3.67;;;;;4.89;76.10;101568.84;5035813;28;45477;-66
2022/01/07 00:25:50;;;;;;;;;13.00;6.00;;;;;4.73;79.27;101551.84;5026027;28;45467;-66
2022/01/07 00:28:17;;;;;;;;;16.00;11.33;;;;;4.68;79.49;101554.81;5025590;28;45347;-66
2022/01/07 00:30:42;;;;;;;;;17.33;13.00;;;;;4.63;80.29;101557.78;5033292;28;45900;-66
2022/01/07 00:33:08;;;;;;;;;20.50;12.50;;;;;4.65;79.63;101555.00;5025996;28;45818;-66
2022/01/07 00:35:33;;;;;;;;;15.00;12.25;;;;;4.66;79.68;101543.28;5040954;28;45432;-66
2022/01/07 00:37:59;;;;;;;;;14.00;12.25;;;;;4.64;79.07;101548.75;5028196;28;46517;-66
2022/01/07 00:40:25;;;;;;;;;13.00;13.00;;;;;4.69;78.25;101557.41;5034698;28;45354;-66
2022/01/07 00:42:52;;;;;;;;;13.67;13.67;;;;;4.68;77.98;101544.03;5030366;28;45405;-66
2022/01/07 00:45:19;;;;;;;;;13.33;7.67;;;;;4.72;78.08;101533.97;5035439;28;45405;-66
2022/01/07 00:47:45;;;;;;;;;13.00;8.67;;;;;4.50;78.73;101537.94;5030891;28;45391;-66
2022/01/07 00:50:12;;;;;;;;;12.00;10.67;;;;;4.58;79.96;101554.50;5035990;28;45409;-66
2022/01/07 00:52:38;;;;;;;;;9.00;7.67;;;;;4.47;80.04;101545.31;5025883;28;45314;-66
2022/01/07 00:55:06;;;;;;;;;16.67;10.33;;;;;4.48;80.54;101541.66;5035274;28;45354;-67
2022/01/07 00:57:31;;;;;;;;;16.00;12.00;;;;;4.49;80.79;101546.97;5027525;28;45731;-66
2022/01/07 00:59:57;;;;;;;;;12.33;12.33;;;;;4.48;80.00;101536.28;5034068;28;45427;-66
2022/01/07 01:02:22;;;;;;;;;12.67;11.33;;;;;4.43;80.62;101535.69;5024425;28;45422;-66
2022/01/07 01:04:48;;;;;;;;;8.67;8.67;;;;;4.33;81.24;101524.59;5034120;28;45529;-66
2022/01/07 01:07:14;;;;;;;;;4.00;4.00;;;;;4.26;89.46;101520.53;5036087;28;45487;-66
2022/01/07 01:09:41;;;;;;;;;8.00;6.67;;;;;4.21;86.34;101515.44;5038998;28;45348;-66
2022/01/07 01:12:07;;;;;;;;;12.33;12.33;;;;;4.32;84.09;101523.72;5034757;28;45433;-66
2022/01/07 01:14:33;;;;;;;;;14.00;12.67;;;;;4.32;82.29;101528.25;5026332;28;45498;-66
2022/01/07 01:16:59;;;;;;;;;13.67;12.00;;;;;4.38;81.85;101513.59;5034435;28;45498;-67
2022/01/07 01:19:25;;;;;;;;;12.00;9.00;;;;;4.39;81.27;101520.66;5027856;28;45483;-68
2022/01/07 01:21:50;;;;;;;;;11.67;11.33;;;;;4.40;81.04;101512.50;5035257;28;45428;-66
2022/01/07 01:24:16;;;;;;;;;12.33;10.00;;;;;4.49;81.07;101528.13;5029652;28;45432;-66
2022/01/07 01:26:41;;;;;;;;;14.67;12.67;;;;;4.47;80.43;101523.78;5036664;28;45624;-67
2022/01/07 01:29:07;;;;;;;;;13.00;13.00;;;;;4.53;80.07;101524.28;5030080;28;45346;-66
2022/01/07 01:31:35;;;;;;;;;12.00;11.67;;;;;4.52;80.08;101524.41;5038002;28;45455;-66
2022/01/07 01:34:01;;;;;;;;;12.33;10.67;;;;;4.51;79.50;101522.66;5028338;28;46002;-66
2022/01/07 01:36:27;;;;;;;;;13.33;12.00;;;;;4.49;80.15;101511.97;5038506;28;45635;-66
2022/01/07 01:38:52;;;;;;;;;11.67;11.67;;;;;4.40;79.37;101490.13;5031801;28;45371;-67
2022/01/07 01:41:17;;;;;;;;;17.00;11.33;;;;;4.52;79.40;101497.50;5040033;28;45845;-66
2022/01/07 01:43:43;;;;;;;;;9.00;7.67;;;;;4.61;78.88;101511.25;5033615;28;45669;-66
2022/01/07 01:46:08;;;;;;;;;15.67;13.33;;;;;4.67;78.89;101510.91;5041023;28;46191;-66
2022/01/07 01:48:33;;;;;;;;;14.67;13.33;;;;;4.70;78.99;101510.69;5025587;28;45664;-66
2022/01/07 01:50:59;;;;;;;;;14.67;13.67;;;;;4.69;78.54;101516.16;5042515;28;45481;-66
2022/01/07 01:53:25;;;;;;;;;16.33;13.00;;;;;4.71;79.13;101503.50;5026618;28;45735;-66
2022/01/07 01:55:52;;;;;;;;;22.00;17.00;;;;;4.78;79.10;101510.22;5043338;28;45404;-66
2022/01/07 01:58:17;;;;;;;;;18.00;14.00;;;;;4.82;78.50;101505.53;5027440;28;45370;-66
2022/01/07 02:00:43;;;;;;;;;17.67;14.67;;;;;4.86;78.30;101499.00;5037313;28;45466;-66
2022/01/07 02:03:08;;;;;;;;;12.33;12.33;;;;;4.85;78.41;101497.25;5027931;28;45579;-66
2022/01/07 02:05:34;;;;;;;;;14.00;10.00;;;;;4.88;78.73;101499.78;5039305;28;46395;-66
2022/01/07 02:07:59;;;;;;;;;11.00;11.00;;;;;4.83;78.21;101493.78;5025653;28;45563;-66
2022/01/07 02:10:26;;;;;;;;;10.33;9.33;;;;;4.83;78.79;101491.97;5044176;28;45896;-66
2022/01/07 02:12:51;;;;;;;;;15.33;12.33;;;;;4.87;78.35;101488.16;5028707;28;45416;-66
2022/01/07 02:15:18;;;;;;;;;18.67;11.00;;;;;4.86;78.15;101491.78;5030469;28;46875;-66
2022/01/07 02:17:47;;;;;;;;;10.00;7.00;;;;;4.83;78.56;101478.50;5042466;28;45531;-66
2022/01/07 02:20:14;;;;;;;;;10.33;6.33;;;;;4.73;79.07;101481.88;5032495;28;45407;-66
2022/01/07 02:22:40;;;;;;;;;10.33;9.00;;;;;4.79;78.60;101478.78;5030270;28;45404;-66
2022/01/07 02:25:06;;;;;;;;;9.00;6.00;;;;;4.72;78.99;101472.06;5023812;28;45151;-66
2022/01/07 02:27:36;;;;;;;;;15.00;14.00;;;;;4.68;78.83;101480.31;5029877;28;45456;-66
2022/01/07 02:30:03;;;;;;;;;6.67;6.67;;;;;4.68;79.23;101474.91;5032258;28;45485;-66
2022/01/07 02:32:29;;;;;;;;;14.00;10.00;;;;;4.73;80.44;101463.03;5047081;28;45633;-66
2022/01/07 02:34:54;;;;;;;;;15.33;13.33;;;;;4.82;80.65;101478.63;5037374;28;46322;-66
2022/01/07 02:37:19;;;;;;;;;12.67;11.33;;;;;4.92;80.88;101477.06;5033214;28;45172;-66
2022/01/07 02:39:46;;;;;;;;;17.67;13.67;;;;;4.90;79.90;101481.69;5038362;28;45323;-66
2022/01/07 02:42:12;;;;;;;;;3.00;3.00;;;;;4.78;79.17;101456.41;5034896;28;45512;-66
2022/01/07 02:44:37;;;;;;;;;11.33;10.00;;;;;4.79;79.81;101457.25;5039286;28;45372;-66
2022/01/07 02:47:03;;;;;;;;;10.00;9.00;;;;;4.82;80.52;101455.22;5034022;28;45442;-66
2022/01/07 02:49:28;;;;;;;;;11.00;11.00;;;;;4.81;79.62;101453.53;5033543;28;45445;-66
2022/01/07 02:51:54;;;;;;;;;18.33;13.33;;;;;4.87;79.60;101444.19;5036857;28;45437;-66
2022/01/07 02:54:19;;;;;;;;;11.00;10.00;;;;;4.94;79.85;101465.25;5032619;28;45498;-66
2022/01/07 02:56:44;;;;;;;;;10.00;10.00;;;;;4.85;79.09;101460.44;5034307;28;45595;-66
2022/01/07 02:59:10;;;;;;;;;10.67;10.00;;;;;4.96;79.66;101468.75;5033526;28;45480;-66
2022/01/07 03:01:38;;;;;;;;;12.33;10.00;;;;;5.01;79.44;101466.63;5028791;28;45581;-66
2022/01/07 03:04:05;;;;;;;;;16.00;12.33;;;;;4.89;79.04;101456.63;5033959;28;46281;-67
2022/01/07 03:06:30;;;;;;;;;11.00;11.00;;;;;4.88;79.16;101460.25;5033108;28;45407;-67
2022/01/07 03:08:56;;;;;;;;;9.67;9.67;;;;;4.97;79.19;101448.03;5030490;28;45536;-67
2022/01/07 03:11:23;;;;;;;;;14.00;13.00;;;;;5.09;79.00;101460.75;5034223;28;45175;-67
2022/01/07 03:13:48;;;;;;;;;9.67;9.67;;;;;5.03;78.60;101463.84;5024323;28;45504;-67
2022/01/07 03:16:14;;;;;;;;;13.00;12.67;;;;;4.96;78.65;101449.03;5034004;28;45436;-67
2022/01/07 03:18:39;;;;;;;;;11.33;10.00;;;;;5.06;79.38;101448.34;5025921;28;45389;-67
2022/01/07 03:21:05;;;;;;;;;10.33;10.33;;;;;5.13;79.07;101451.50;5035053;28;45594;-67
2022/01/07 03:23:32;;;;;;;;;10.00;9.67;;;;;5.10;78.64;101454.41;5025800;28;46438;-67
2022/01/07 03:25:57;;;;;;;;;6.33;6.00;;;;;5.08;78.32;101429.38;5040773;28;46023;-66
2022/01/07 03:28:23;;;;;;;;;13.33;10.33;;;;;5.03;78.56;101442.28;5026591;28;45425;-67
2022/01/07 03:30:49;;;;;;;;;12.67;10.00;;;;;5.15;77.97;101440.63;5037777;28;45615;-67
2022/01/07 03:33:15;;;;;;;;;13.67;12.67;;;;;5.18;78.07;101435.06;5028073;28;46503;-66
2022/01/07 03:35:42;;;;;;;;;15.33;11.67;;;;;5.12;78.08;101430.03;5037611;28;45231;-67
2022/01/07 03:38:08;;;;;;;;;6.00;6.00;;;;;5.13;78.56;101432.66;5029958;28;45325;-66
2022/01/07 03:40:35;;;;;;;;;4.67;4.67;;;;;5.01;77.70;101428.91;5038010;28;45503;-66
2022/01/07 03:43:02;;;;;;;;;6.33;6.00;;;;;5.03;77.97;101436.91;5031839;28;45382;-66
2022/01/07 03:45:27;;;;;;;;;15.67;11.00;;;;;5.08;78.08;101424.88;5037713;28;45267;-66
2022/01/07 03:47:53;;;;;;;;;14.00;11.33;;;;;5.12;78.24;101425.53;5033550;28;45417;-66
2022/01/07 03:50:21;;;;;;;;;12.00;9.00;;;;;5.14;77.78;101423.59;5038823;28;45648;-66
2022/01/07 03:52:48;;;;;;;;;11.00;6.00;;;;;5.05;77.96;101434.94;5027108;28;45342;-67
2022/01/07 03:55:17;;;;;;;;;7.00;7.00;;;;;5.14;78.06;101428.13;5038134;28;45458;-67
2022/01/07 03:57:43;;;;;;;;;10.33;5.33;;;;;5.17;77.87;101425.25;5029168;28;45404;-66
2022/01/07 04:00:12;;;;;;;;;11.00;9.67;;;;;5.20;77.58;101417.81;5036677;28;45445;-67
2022/01/07 04:02:38;;;;;;;;;9.00;8.33;;;;;5.25;77.20;101421.13;5026210;28;46250;-66
2022/01/07 04:05:04;;;;;;;;;12.00;10.00;;;;;5.25;77.25;101417.56;5034406;28;45525;-67
2022/01/07 04:07:31;;;;;;;;;9.33;9.33;;;;;5.19;76.85;101404.47;5028995;28;45431;-67
2022/01/07 04:10:00;;;;;;;;;9.00;9.00;;;;;5.28;76.97;101399.34;5039510;28;45338;-67
2022/01/07 04:12:26;;;;;;;;;10.00;8.67;;;;;5.31;76.93;101403.69;5030520;28;45346;-67
2022/01/07 04:15:03;;;;;;;;;9.33;6.33;;;;;5.29;76.95;101394.81;5027487;28;45389;-66
2022/01/07 04:17:28;;;;;;;;;9.00;7.00;;;;;5.40;77.20;101403.97;5029035;28;45433;-67
2022/01/07 04:19:53;;;;;;;;;9.00;6.33;;;;;5.38;76.81;101410.41;5030563;28;45445;-67
2022/01/07 04:22:19;;;;;;;;;7.00;7.00;;;;;5.32;76.66;101406.28;5029823;28;46264;-67
2022/01/07 04:24:44;;;;;;;;;15.33;9.00;;;;;5.35;76.71;101400.69;5030888;28;45492;-67
2022/01/07 04:27:09;;;;;;;;;8.33;7.67;;;;;5.29;76.89;101395.69;5031459;28;45329;-68
2022/01/07 04:29:35;;;;;;;;;7.00;7.00;;;;;5.38;76.43;101395.09;5031845;28;45374;-67
2022/01/07 04:32:02;;;;;;;;;9.00;5.00;;;;;5.48;76.67;101393.53;5032738;28;45471;-67
2022/01/07 04:34:27;;;;;;;;;7.67;7.00;;;;;5.42;76.16;101398.44;5031961;28;45356;-67
2022/01/07 04:36:52;;;;;;;;;10.67;6.67;;;;;5.45;76.51;101384.78;5028747;28;45593;-67
2022/01/07 04:39:18;;;;;;;;;6.33;6.33;;;;;5.55;76.55;101388.63;5032672;28;45475;-67
2022/01/07 04:41:43;;;;;;;;;11.67;9.00;;;;;5.55;76.70;101398.53;5034307;28;45461;-67
2022/01/07 04:44:08;;;;;;;;;2.67;2.67;;;;;5.55;76.69;101401.22;5032950;28;45311;-66
2022/01/07 04:46:34;;;;;;;;;11.00;7.00;;;;;5.55;76.28;101406.63;5034838;28;45335;-66
2022/01/07 04:48:59;;;;;;;;;7.67;7.67;;;;;5.44;76.35;101410.00;5034474;28;45346;-66
2022/01/07 04:51:24;;;;;;;;;12.33;10.67;;;;;5.45;76.76;101415.28;5037207;28;46066;-67
2022/01/07 04:53:50;;;;;;;;;7.00;7.00;;;;;5.54;76.70;101407.59;5025806;28;45268;-66
2022/01/07 04:56:15;;;;;;;;;8.33;6.00;;;;;5.46;76.49;101406.25;5038761;28;45159;-66
2022/01/07 04:58:41;;;;;;;;;6.33;5.00;;;;;5.53;76.74;101393.25;5027030;28;45606;-66
2022/01/07 05:01:06;;;;;;;;;7.00;6.67;;;;;5.58;76.65;101396.50;5031649;28;45465;-66
2022/01/07 05:03:32;;;;;;;;;7.00;5.00;;;;;5.56;76.46;101393.03;5029522;28;45136;-67
2022/01/07 05:06:44;;;;;;;;;8.67;5.33;;;;;5.60;76.11;101385.63;5051343;28;45381;-67
2022/01/07 05:08:42;;;;;;;;;6.00;6.00;;;;;5.54;77.03;101373.41;5025226;28;45528;-67
2022/01/07 05:11:08;;;;;;;;;11.00;5.33;;;;;5.50;76.25;101369.16;5031872;28;45214;-67
2022/01/07 05:13:33;;;;;;;;;6.33;6.33;;;;;5.44;76.54;101362.38;5024283;28;45286;-67
2022/01/07 05:15:58;;;;;;;;;7.33;6.33;;;;;5.45;76.48;101366.78;5032709;28;45429;-67
2022/01/07 05:18:24;;;;;;;;;9.00;6.33;;;;;5.39;76.83;101372.59;5026151;28;45438;-67
2022/01/07 05:20:49;;;;;;;;;7.33;6.00;;;;;5.33;77.28;101370.25;5034083;28;45388;-67
2022/01/07 05:23:15;;;;;;;;;7.00;6.00;;;;;5.25;77.08;101377.13;5025071;28;45443;-67
2022/01/07 05:25:41;;;;;;;;;6.00;4.67;;;;;5.26;77.64;101385.09;5034335;28;45308;-67
2022/01/07 05:28:06;;;;;;;;;7.67;5.33;;;;;5.26;77.65;101385.09;5027127;28;45519;-67
2022/01/07 05:30:32;;;;;;;;;5.67;3.00;;;;;5.21;77.98;101398.00;5033832;28;46283;-67
2022/01/07 05:32:58;;;;;;;;;5.00;3.00;;;;;5.11;78.30;101404.97;5028923;28;45373;-67
2022/01/07 05:35:25;;;;;;;;;4.33;4.33;;;;;5.15;78.12;101398.41;5034215;28;45223;-67
2022/01/07 05:37:51;;;;;;;;;5.67;5.67;;;;;5.26;78.28;101401.25;5030242;28;45612;-67
2022/01/07 05:40:17;;;;;;;;;6.00;3.67;;;;;5.27;78.04;101400.31;5034560;28;45459;-67
2022/01/07 05:42:42;;;;;;;;;6.33;5.00;;;;;5.37;77.79;101395.19;5030933;28;45360;-67
2022/01/07 05:45:08;;;;;;;;;6.00;3.00;;;;;5.37;77.90;101393.38;5034850;28;45316;-67
2022/01/07 05:47:33;;;;;;;;;4.67;4.33;;;;;5.38;77.77;101396.94;5032636;28;45405;-67
2022/01/07 05:49:59;;;;;;;;;6.33;6.33;;;;;5.32;77.08;101390.13;5041808;28;45385;-67
2022/01/07 05:52:24;;;;;;;;;6.00;5.33;;;;;5.36;77.43;101398.84;5029277;28;45501;-67
2022/01/07 05:54:50;;;;;;;;;5.67;5.67;;;;;5.31;77.53;101403.69;5036633;28;45511;-67
2022/01/07 05:57:16;;;;;;;;;9.00;6.00;;;;;5.26;77.23;101413.91;5035430;28;45378;-67
2022/01/07 05:59:41;;;;;;;;;6.00;6.00;;;;;5.19;77.87;101410.69;5036781;28;46312;-67
2022/01/07 06:02:06;;;;;;;;;4.33;3.00;;;;;5.19;77.75;101402.63;5029462;28;45484;-67
2022/01/07 06:04:32;;;;;;;;;5.00;5.00;;;;;5.17;77.70;101409.09;5033643;28;45748;-67
2022/01/07 06:06:57;;;;;;;;;8.67;5.00;;;;;5.20;77.57;101400.78;5035125;28;45338;-67
2022/01/07 06:09:23;;;;;;;;;5.67;5.00;;;;;5.23;77.70;101404.16;5039880;28;47207;-67
2022/01/07 06:11:48;;;;;;;;;8.00;8.00;;;;;5.20;77.44;101396.28;5037006;28;45552;-67
2022/01/07 06:14:14;;;;;;;;;5.00;5.00;;;;;5.24;78.34;101407.72;5026595;28;45215;-67
2022/01/07 06:16:39;;;;;;;;;6.00;6.00;;;;;5.29;77.63;101411.84;5037675;28;45945;-67
2022/01/07 06:19:04;;;;;;;;;5.33;4.33;;;;;5.28;77.50;101398.47;5027509;28;46438;-67
2022/01/07 06:21:30;;;;;;;;;5.67;2.67;;;;;5.19;78.04;101378.38;5037408;28;45283;-67
2022/01/07 06:23:56;;;;;;;;;6.00;6.00;;;;;5.33;78.07;101399.91;5028626;28;45357;-67
2022/01/07 06:26:21;;;;;;;;;9.67;6.00;;;;;5.36;77.90;101415.88;5037593;28;45339;-67
2022/01/07 06:28:46;;;;;;;;;8.00;7.00;;;;;5.35;77.99;101410.59;5024295;28;46519;-67
2022/01/07 06:31:12;;;;;;;;;6.33;5.33;;;;;5.44;78.01;101418.09;5039133;28;45431;-67
2022/01/07 06:33:38;;;;;;;;;9.00;4.33;;;;;5.45;77.57;101406.34;5030512;28;45513;-67
2022/01/07 06:36:03;;;;;;;;;8.33;5.67;;;;;5.51;77.79;101405.06;5040562;28;45178;-67
2022/01/07 06:38:29;;;;;;;;;9.00;6.67;;;;;5.48;77.65;101393.53;5031245;28;46576;-67
2022/01/07 06:40:54;;;;;;;;;6.00;6.00;;;;;5.54;77.86;101394.09;5041144;28;45397;-67
2022/01/07 06:43:19;;;;;;;;;9.33;5.67;;;;;5.57;77.62;101402.84;5032831;28;45557;-67
2022/01/07 06:45:45;;;;;;;;;9.67;6.67;;;;;5.62;77.80;101391.78;5042546;28;45474;-67
2022/01/07 06:48:10;;;;;;;;;5.67;3.00;;;;;5.63;77.64;101393.47;5023772;28;47059;-67
2022/01/07 06:50:35;;;;;;;;;5.00;5.00;;;;;5.69;77.92;101396.66;5041477;28;45393;-67
2022/01/07 06:53:01;;;;;;;;;11.67;7.33;;;;;5.74;77.02;101388.25;5027413;28;45471;-67
2022/01/07 06:55:26;;;;;;;;;9.00;7.00;;;;;5.74;77.37;101396.34;5041875;28;45353;-67
2022/01/07 06:57:51;;;;;;;;;12.00;6.33;;;;;5.72;77.19;101382.09;5025168;28;46927;-67
2022/01/07 07:00:17;;;;;;;;;9.33;6.00;;;;;5.73;77.64;101378.44;5036350;28;46423;-67
2022/01/07 07:02:42;;;;;;;;;7.67;6.00;;;;;5.75;77.72;101380.06;5026861;28;45488;-67
2022/01/07 07:05:08;;;;;;;;;5.67;5.67;;;;;5.82;77.92;101397.56;5035595;28;45254;-67
2022/01/07 07:07:33;;;;;;;;;3.67;3.67;;;;;5.82;77.81;101394.88;5028913;28;45352;-67
2022/01/07 07:09:59;;;;;;;;;8.33;5.67;;;;;5.75;77.81;101384.59;5026295;28;45246;-67
2022/01/07 07:12:24;;;;;;;;;6.33;5.00;;;;;5.82;77.49;101399.41;5047542;28;45381;-67
2022/01/07 07:14:49;;;;;;;;;4.33;3.67;;;;;5.83;77.89;101395.75;5028426;28;45459;-67
2022/01/07 07:17:15;;;;;;;;;6.67;5.67;;;;;5.88;78.20;101406.25;5032183;28;46676;-67
2022/01/07 07:19:40;;;;;;;;;5.67;5.00;;;;;5.70;78.21;101390.28;5029201;28;45266;-66
2022/01/07 07:22:06;;;;;;;;;6.00;5.67;;;;;5.77;78.15;101401.56;5032451;28;45374;-66
2022/01/07 07:24:32;;;;;;;;;5.00;3.00;;;;;5.64;78.68;101393.38;5028380;28;45334;-66
2022/01/07 07:26:58;;;;;;;;;9.33;7.67;;;;;5.79;78.85;101400.47;5032732;28;46211;-66
2022/01/07 07:29:23;;;;;;;;;6.67;5.00;;;;;5.85;78.93;101404.56;5031142;28;45317;-66
2022/01/07 07:31:53;;;;;;;;;7.67;7.00;;;;;5.83;78.85;101393.03;5033000;28;45368;-67
2022/01/07 07:34:32;;;;;;;;;6.33;6.33;;;;;5.93;78.96;101412.19;5032045;28;46414;-67
2022/01/07 07:36:57;;;;;;;;;7.00;6.00;;;;;5.99;79.15;101409.09;5032052;28;46308;-67
2022/01/07 07:39:22;;;;;;;;;6.33;6.33;;;;;5.95;79.11;101412.94;5034921;28;45376;-68
2022/01/07 07:41:49;;;;;;;;;9.67;7.00;;;;;6.02;80.00;101415.13;5032385;28;45311;-67
2022/01/07 07:44:14;;;;;;;;;11.00;6.00;;;;;6.01;80.44;101426.88;5023656;28;45359;-68
2022/01/07 07:46:40;;;;;;;;;8.00;7.67;;;;;6.05;80.96;101423.03;5017928;28;46928;-67
2022/01/07 07:49:07;;;;;;;;;6.00;6.00;;;;;6.06;80.08;101427.47;5029093;28;45772;-67
2022/01/07 07:51:33;;;;;;;;;6.00;6.00;;;;;6.02;81.24;101423.22;5036967;28;45372;-67
2022/01/07 07:53:58;;;;;;;;;7.33;5.00;;;;;6.01;81.79;101417.94;5031350;28;45646;-68
2022/01/07 07:56:25;;;;;;;;;6.00;6.00;;;;;6.06;81.59;101423.91;5052551;28;47081;-68
2022/01/07 07:58:51;;;;;;;;;9.33;5.33;;;;;6.07;80.63;101410.28;5020640;28;45291;-68
2022/01/07 08:01:17;;;;;;;;;11.00;7.33;;;;;6.04;81.83;101412.34;5032020;28;45524;-67
2022/01/07 08:03:44;;;;;;;;;3.00;3.00;;;;;6.09;81.48;101415.59;5032247;28;45279;-68
2022/01/07 08:06:10;;;;;;;;;4.33;3.00;;;;;6.12;81.30;101416.25;5034665;28;45460;-68
2022/01/07 08:08:36;;;;;;;;;8.33;6.00;;;;;6.02;82.34;101420.53;5023158;28;45385;-68
2022/01/07 08:11:05;;;;;;;;;7.00;5.67;;;;;6.04;82.23;101423.13;5033139;28;45295;-68
2022/01/07 08:13:31;;;;;;;;;8.33;6.67;;;;;6.00;82.99;101435.94;5029553;28;45606;-68
2022/01/07 08:16:04;;;;;;;;;11.33;8.00;;;;;6.03;82.78;101430.38;5040975;28;45560;-67
2022/01/07 08:18:29;;;;;;;;;6.33;5.00;;;;;6.02;82.86;101434.03;5024263;28;45395;-67
2022/01/07 08:20:58;;;;;;;;;5.00;5.00;;;;;5.91;83.73;101428.50;5034585;28;45369;-67
2022/01/07 08:23:24;;;;;;;;;9.33;7.67;;;;;5.90;84.36;101432.16;5020626;28;45561;-67
2022/01/07 08:25:50;;;;;;;;;6.33;3.00;;;;;5.92;85.12;101432.06;5035580;28;45414;-67
2022/01/07 08:28:16;;;;;;;;;2.33;2.33;;;;;5.99;85.12;101427.97;5026355;28;45473;-67
2022/01/07 08:36:14;;;;;;;;;8.33;5.00;;;;;6.02;83.85;101428.63;5037509;28;45437;-67
2022/01/07 08:38:39;;;;;;;;;4.33;2.00;;;;;6.01;83.25;101421.50;5027089;28;45214;-68
2022/01/07 08:41:05;;;;;;;;;1.00;1.00;;;;;5.98;83.48;101432.50;5038727;28;45336;-66
2022/01/07 08:43:30;;;;;;;;;6.00;3.00;;;;;5.99;83.44;101409.09;5030573;28;45624;-67
2022/01/07 08:45:56;;;;;;;;;2.67;2.67;;;;;6.02;83.39;101408.88;5039867;28;46847;-67
2022/01/07 08:48:21;;;;;;;;;2.00;2.00;;;;;5.99;83.54;101406.41;5030819;28;45308;-67
2022/01/07 08:50:47;;;;;;;;;4.00;3.00;;;;;5.98;83.47;101393.88;5038833;28;45385;-67
2022/01/07 08:53:13;;;;;;;;;5.33;3.00;;;;;5.94;83.34;101386.94;5023681;28;45601;-67
2022/01/07 08:55:38;;;;;;;;;3.33;2.00;;;;;5.91;83.60;101379.94;5040597;28;46398;-67
2022/01/07 08:58:04;;;;;;;;;2.67;2.67;;;;;5.94;83.72;101363.53;5025866;28;45369;-67
2022/01/07 09:00:30;;;;;;;;;4.00;2.00;;;;;5.91;84.28;101361.06;5035341;28;45361;-67
2022/01/07 09:02:56;;;;;;;;;5.00;4.33;;;;;5.69;83.49;101360.75;5026262;28;45247;-67
2022/01/07 09:05:21;;;;;;;;;8.33;5.67;;;;;5.59;83.91;101375.78;5035322;28;45753;-67
2022/01/07 09:07:47;;;;;;;;;3.00;3.00;;;;;5.61;84.58;101388.22;5026630;28;45346;-67
2022/01/07 09:10:12;;;;;;;;;3.00;2.33;;;;;5.72;84.99;101396.44;5027555;28;45260;-66
2022/01/07 09:12:37;;;;;;;;;7.67;5.00;;;;;5.80;85.18;101410.28;5028299;28;45425;-67
2022/01/07 09:15:03;;;;;;;;;3.00;3.00;;;;;5.81;84.21;101409.31;5043543;28;47084;-67
2022/01/07 09:17:31;;;;;;;;;5.33;4.33;;;;;5.93;84.63;101413.06;5028990;28;46012;-67
2022/01/07 09:19:56;;;;;;;;;5.33;2.33;;;;;6.00;83.90;101416.19;5029955;28;45238;-66
2022/01/07 09:22:21;;;;;;;;;5.00;1.33;;;;;6.12;83.25;101405.47;5028246;28;45349;-66
2022/01/07 09:24:46;;;;;;;;;1.00;1.00;;;;;6.11;82.45;101408.25;5030891;28;45390;-66
2022/01/07 09:27:12;;;;;;;;;1.00;0.00;;;;;6.07;82.14;101406.72;5032348;28;45218;-66
2022/01/07 09:29:37;;;;;;;;;2.00;2.00;;;;;6.02;82.33;101401.66;5033838;28;45196;-67
2022/01/07 09:32:03;;;;;;;;;1.33;1.33;;;;;6.04;82.28;101399.72;5036188;28;45312;-66
2022/01/07 09:34:28;;;;;;;;;1.33;1.33;;;;;6.09;82.28;101404.78;5036001;28;46231;-67
2022/01/07 09:36:54;;;;;;;;;2.00;2.00;;;;;6.17;82.02;101410.53;5031977;28;45512;-66
2022/01/07 09:39:19;;;;;;;;;3.33;1.67;;;;;6.19;81.91;101412.19;5036264;28;45363;-66
2022/01/07 09:41:45;;;;;;;;;2.00;2.00;;;;;6.19;81.91;101424.81;5037004;28;46528;-67
2022/01/07 09:44:11;;;;;;;;;1.33;1.33;;;;;6.13;81.58;101404.50;5043497;28;47813;-66
2022/01/07 09:46:37;;;;;;;;;3.67;1.33;;;;;6.21;81.53;101412.91;5039064;28;45464;-67
2022/01/07 09:49:04;;;;;;;;;5.00;3.00;;;;;6.23;81.37;101411.00;5030274;28;45479;-66
2022/01/07 09:51:30;;;;;;;;;3.00;1.33;;;;;6.21;81.29;101406.66;5037966;28;45614;-67
2022/01/07 09:53:55;;;;;;;;;1.00;1.00;;;;;6.22;80.63;101395.75;5046024;28;48296;-67
2022/01/07 09:56:21;;;;;;;;;1.00;1.00;;;;;6.31;80.71;101409.59;5041086;28;45404;-68
2022/01/07 09:58:47;;;;;;;;;3.00;1.00;;;;;6.30;80.61;101405.16;5047933;28;45414;-67
2022/01/07 10:01:16;;;;;;;;;1.67;1.67;;;;;6.41;80.62;101402.59;5033944;28;45446;-67
2022/01/07 10:03:43;;;;;;;;;5.00;2.00;;;;;6.54;80.09;101411.56;5029862;28;45366;-67
2022/01/07 10:06:23;;;;;;;;;1.00;1.00;;;;;6.60;79.96;101403.91;5035716;28;45466;-67
2022/01/07 10:09:07;;;;;;;;;2.00;2.00;;;;;6.69;79.67;101410.50;5024786;28;45326;-68
2022/01/07 10:11:34;;;;;;;;;2.67;1.33;;;;;6.82;79.05;101397.00;5034093;28;45346;-67
2022/01/07 10:14:19;;;;;;;;;2.67;2.67;;;;;6.95;78.21;101396.03;5026671;28;46228;-67
2022/01/07 10:16:56;;;;;;;;;5.00;1.00;;;;;6.99;78.05;101400.25;5036098;28;45414;-67
2022/01/07 10:19:29;;;;;;;;;1.00;0.67;;;;;6.96;77.92;101408.56;5028338;28;45458;-67
2022/01/07 10:22:03;;;;;;;;;4.00;1.67;;;;;6.81;77.62;101406.94;5036423;28;45515;-67
2022/01/07 10:24:29;;;;;;;;;5.33;2.00;;;;;6.65;77.94;101399.06;5027683;28;45454;-68
2022/01/07 10:27:13;;;;;;;;;0.00;0.00;;;;;6.62;78.48;101403.81;5030629;28;45361;-67
2022/01/07 10:29:43;;;;;;;;;1.00;1.00;;;;;6.58;78.45;101400.44;5033552;28;45263;-67
2022/01/07 10:32:27;;;;;;;;;2.00;1.00;;;;;6.74;78.48;101392.16;5033631;28;45646;-67
2022/01/07 10:35:17;;;;;;;;;5.00;5.00;;;;;6.67;78.59;101384.59;5025563;28;47109;-67
2022/01/07 10:38:01;;;;;;;;;2.00;2.00;;;;;6.82;78.89;101370.00;5033296;28;45413;-67
2022/01/07 10:40:38;;;;;;;;;3.00;1.00;;;;;6.91;78.71;101364.81;5036867;28;45238;-66
2022/01/07 10:43:11;;;;;;;;;2.00;2.00;;;;;6.99;78.20;101370.53;5038268;28;45518;-67
2022/01/07 10:45:43;;;;;;;;;2.00;1.00;;;;;6.91;77.79;101382.84;5037091;28;45251;-67
2022/01/07 10:48:10;;;;;;;;;5.67;2.00;;;;;6.83;78.30;101372.59;5025981;28;45352;-67
2022/01/07 10:50:39;;;;;;;;;5.00;4.00;;;;;6.87;78.18;101368.69;5041458;28;45220;-67
2022/01/07 10:53:15;;;;;;;;;1.67;1.67;;;;;6.82;77.14;101365.47;5027964;28;45496;-67
2022/01/07 10:55:55;;;;;;;;;2.67;1.33;;;;;6.88;76.57;101375.81;5059097;28;47455;-67
2022/01/07 10:58:21;;;;;;;;;6.00;4.33;;;;;7.06;77.20;101373.66;5028055;28;45186;-67
2022/01/07 11:00:46;;;;;;;;;6.00;5.33;;;;;7.10;76.37;101380.53;5036581;28;45465;-67
2022/01/07 11:03:11;;;;;;;;;3.00;1.67;;;;;7.26;76.15;101377.59;5027640;28;45813;-67
2022/01/07 11:05:37;;;;;;;;;2.00;2.00;;;;;7.26;75.61;101375.75;5054160;28;46327;-66
2022/01/07 11:08:03;;;;;;;;;3.67;1.33;;;;;7.35;75.65;101374.22;5026934;28;45227;-66
2022/01/07 11:10:30;;;;;;;;;1.00;1.00;;;;;7.33;75.43;101371.63;5032116;28;45283;-67
2022/01/07 11:12:56;;;;;;;;;2.00;2.00;;;;;7.54;75.47;101363.78;5028786;28;45396;-67
2022/01/07 11:15:22;;;;;;;;;2.00;1.00;;;;;7.44;74.82;101357.34;5020604;28;45343;-67
2022/01/07 11:17:47;;;;;;;;;1.00;1.00;;;;;7.54;74.54;101352.09;5021228;28;46086;-66
2022/01/07 11:20:14;;;;;;;;;0.33;0.33;;;;;7.56;74.14;101351.00;5047525;28;45386;-66
2022/01/07 11:22:42;;;;;;;;;1.00;1.00;;;;;7.62;74.83;101352.38;5031499;28;45523;-66
2022/01/07 11:25:13;;;;;;;;;0.00;0.00;;;;;7.55;74.64;101338.47;5033265;28;45586;-66
2022/01/07 11:27:57;;;;;;;;;0.00;0.00;;;;;7.46;74.48;101346.38;5029747;28;45469;-65
2022/01/07 11:30:29;;;;;;;;;1.00;1.00;;;;;7.41;74.38;101349.44;5036769;28;45314;-64
2022/01/07 11:32:55;;;;;;;;;1.67;1.67;;;;;7.51;75.76;101374.84;5033970;28;45467;-64